sensor_id;sensor_type;location;lat;lon;timestamp;temperature;humidity
37052;DHT22;22964;52.272;13.356;2023-03-15T00:00:47;6.10;66.80
37052;DHT22;22964;52.272;13.356;2023-03-15T00:03:13;6.10;66.80
37052;DHT22;22964;52.272;13.356;2023-03-15T00:05:43;6.10;66.80
37052;DHT22;22964;52.272;13.356;2023-03-15T00:08:09;6.10;66.80
37052;DHT22;22964;52.272;13.356;2023-03-15T00:10:46;6.10;66.70
37052;DHT22;22964;52.272;13.356;2023-03-15T00:13:13;6.10;66.70
37052;DHT22;22964;52.272;13.356;2023-03-15T00:15:50;6.10;66.60
37052;DHT22;22964;52.272;13.356;2023-03-15T00:18:17;6.10;66.60
37052;DHT22;22964;52.272;13.356;2023-03-15T00:20:44;6.10;66.50
37052;DHT22;22964;52.272;13.356;2023-03-15T00:23:09;6.10;66.50
37052;DHT22;22964;52.272;13.356;2023-03-15T00:25:36;6.10;66.40
37052;DHT22;22964;52.272;13.356;2023-03-15T00:28:02;6.10;66.40
37052;DHT22;22964;52.272;13.356;2023-03-15T00:30:31;6.10;66.40
37052;DHT22;22964;52.272;13.356;2023-03-15T00:32:57;6.10;66.50
37052;DHT22;22964;52.272;13.356;2023-03-15T00:35:23;6.10;66.40
37052;DHT22;22964;52.272;13.356;2023-03-15T00:37:54;6.00;66.40
37052;DHT22;22964;52.272;13.356;2023-03-15T00:40:21;6.00;66.40
37052;DHT22;22964;52.272;13.356;2023-03-15T00:42:47;6.00;66.40
37052;DHT22;22964;52.272;13.356;2023-03-15T00:45:18;6.00;66.40
37052;DHT22;22964;52.272;13.356;2023-03-15T00:47:48;6.00;66.40
37052;DHT22;22964;52.272;13.356;2023-03-15T00:50:14;5.90;66.40
37052;DHT22;22964;52.272;13.356;2023-03-15T00:52:41;6.00;66.40
37052;DHT22;22964;52.272;13.356;2023-03-15T00:55:12;6.00;66.30
37052;DHT22;22964;52.272;13.356;2023-03-15T00:57:42;6.00;66.40
37052;DHT22;22964;52.272;13.356;2023-03-15T01:00:11;5.90;66.30
37052;DHT22;22964;52.272;13.356;2023-03-15T01:02:37;5.90;66.30
37052;DHT22;22964;52.272;13.356;2023-03-15T01:05:05;5.90;66.30
37052;DHT22;22964;52.272;13.356;2023-03-15T01:07:31;5.90;66.40
37052;DHT22;22964;52.272;13.356;2023-03-15T01:09:59;5.90;66.30
37052;DHT22;22964;52.272;13.356;2023-03-15T01:12:27;5.90;66.40
37052;DHT22;22964;52.272;13.356;2023-03-15T01:14:53;5.90;66.30
37052;DHT22;22964;52.272;13.356;2023-03-15T01:17:18;5.90;66.40
37052;DHT22;22964;52.272;13.356;2023-03-15T01:19:44;5.90;66.40
37052;DHT22;22964;52.272;13.356;2023-03-15T01:22:10;5.90;66.30
37052;DHT22;22964;52.272;13.356;2023-03-15T01:24:36;5.90;66.30
37052;DHT22;22964;52.272;13.356;2023-03-15T01:27:02;5.80;66.30
37052;DHT22;22964;52.272;13.356;2023-03-15T01:29:28;5.90;66.40
37052;DHT22;22964;52.272;13.356;2023-03-15T01:31:53;5.80;66.20
37052;DHT22;22964;52.272;13.356;2023-03-15T01:34:19;5.80;66.20
37052;DHT22;22964;52.272;13.356;2023-03-15T01:36:49;5.80;66.10
37052;DHT22;22964;52.272;13.356;2023-03-15T01:39:17;5.80;66.20
37052;DHT22;22964;52.272;13.356;2023-03-15T01:41:44;5.80;66.20
37052;DHT22;22964;52.272;13.356;2023-03-15T01:44:15;5.80;66.20
37052;DHT22;22964;52.272;13.356;2023-03-15T01:46:43;5.80;66.20
37052;DHT22;22964;52.272;13.356;2023-03-15T01:51:56;5.80;66.20
37052;DHT22;22964;52.272;13.356;2023-03-15T01:56:58;5.70;66.10
37052;DHT22;22964;52.272;13.356;2023-03-15T01:59:32;5.70;66.20
37052;DHT22;22964;52.272;13.356;2023-03-15T02:02:00;5.70;66.30
37052;DHT22;22964;52.272;13.356;2023-03-15T02:04:37;5.60;66.30
37052;DHT22;22964;52.272;13.356;2023-03-15T02:07:07;5.60;66.40
37052;DHT22;22964;52.272;13.356;2023-03-15T02:09:52;5.60;66.40
37052;DHT22;22964;52.272;13.356;2023-03-15T02:12:19;5.60;66.60
37052;DHT22;22964;52.272;13.356;2023-03-15T02:14:49;5.50;66.50
37052;DHT22;22964;52.272;13.356;2023-03-15T02:17:19;5.50;66.60
37052;DHT22;22964;52.272;13.356;2023-03-15T02:20:07;5.50;66.70
37052;DHT22;22964;52.272;13.356;2023-03-15T02:28:03;5.40;66.90
37052;DHT22;22964;52.272;13.356;2023-03-15T02:30:30;5.40;66.80
37052;DHT22;22964;52.272;13.356;2023-03-15T02:32:57;5.40;67.00
37052;DHT22;22964;52.272;13.356;2023-03-15T02:35:27;5.40;67.10
37052;DHT22;22964;52.272;13.356;2023-03-15T02:37:53;5.30;67.10
37052;DHT22;22964;52.272;13.356;2023-03-15T02:40:20;5.40;67.30
37052;DHT22;22964;52.272;13.356;2023-03-15T02:42:49;5.30;67.30
37052;DHT22;22964;52.272;13.356;2023-03-15T02:45:16;5.40;67.30
37052;DHT22;22964;52.272;13.356;2023-03-15T02:47:43;5.30;67.30
37052;DHT22;22964;52.272;13.356;2023-03-15T02:50:10;5.30;67.30
37052;DHT22;22964;52.272;13.356;2023-03-15T02:52:35;5.40;67.30
37052;DHT22;22964;52.272;13.356;2023-03-15T02:55:01;5.30;67.30
37052;DHT22;22964;52.272;13.356;2023-03-15T02:57:27;5.30;67.30
37052;DHT22;22964;52.272;13.356;2023-03-15T02:59:54;5.40;67.20
37052;DHT22;22964;52.272;13.356;2023-03-15T03:02:20;5.30;67.30
37052;DHT22;22964;52.272;13.356;2023-03-15T03:04:46;5.30;67.30
37052;DHT22;22964;52.272;13.356;2023-03-15T03:07:12;5.30;67.20
37052;DHT22;22964;52.272;13.356;2023-03-15T03:09:45;5.30;67.30
37052;DHT22;22964;52.272;13.356;2023-03-15T03:12:12;5.40;67.40
37052;DHT22;22964;52.272;13.356;2023-03-15T03:14:38;5.30;67.40
37052;DHT22;22964;52.272;13.356;2023-03-15T03:17:09;5.30;67.30
37052;DHT22;22964;52.272;13.356;2023-03-15T03:19:37;5.30;67.40
37052;DHT22;22964;52.272;13.356;2023-03-15T03:22:03;5.30;67.40
37052;DHT22;22964;52.272;13.356;2023-03-15T03:24:29;5.30;67.40
37052;DHT22;22964;52.272;13.356;2023-03-15T03:26:55;5.30;67.30
37052;DHT22;22964;52.272;13.356;2023-03-15T03:29:27;5.30;67.30
37052;DHT22;22964;52.272;13.356;2023-03-15T03:31:55;5.30;67.20
37052;DHT22;22964;52.272;13.356;2023-03-15T03:34:21;5.30;67.20
37052;DHT22;22964;52.272;13.356;2023-03-15T03:36:47;5.30;67.30
37052;DHT22;22964;52.272;13.356;2023-03-15T03:39:22;5.20;67.30
37052;DHT22;22964;52.272;13.356;2023-03-15T03:41:48;5.20;67.30
37052;DHT22;22964;52.272;13.356;2023-03-15T03:44:15;5.20;67.30
37052;DHT22;22964;52.272;13.356;2023-03-15T03:46:43;5.20;67.40
37052;DHT22;22964;52.272;13.356;2023-03-15T03:49:10;5.20;67.50
37052;DHT22;22964;52.272;13.356;2023-03-15T03:51:36;5.20;67.60
37052;DHT22;22964;52.272;13.356;2023-03-15T03:54:03;5.10;67.50
37052;DHT22;22964;52.272;13.356;2023-03-15T03:56:29;5.10;67.50
37052;DHT22;22964;52.272;13.356;2023-03-15T03:58:55;5.10;67.50
37052;DHT22;22964;52.272;13.356;2023-03-15T04:01:28;5.10;67.60
37052;DHT22;22964;52.272;13.356;2023-03-15T04:03:54;5.10;67.60
37052;DHT22;22964;52.272;13.356;2023-03-15T04:06:22;5.10;67.70
37052;DHT22;22964;52.272;13.356;2023-03-15T04:08:48;5.00;67.70
37052;DHT22;22964;52.272;13.356;2023-03-15T04:11:19;5.00;67.80
37052;DHT22;22964;52.272;13.356;2023-03-15T04:13:53;5.00;67.80
37052;DHT22;22964;52.272;13.356;2023-03-15T04:16:19;5.00;67.90
37052;DHT22;22964;52.272;13.356;2023-03-15T04:19:06;5.00;67.90
37052;DHT22;22964;52.272;13.356;2023-03-15T04:21:34;4.90;67.80
37052;DHT22;22964;52.272;13.356;2023-03-15T04:24:20;4.90;67.90
37052;DHT22;22964;52.272;13.356;2023-03-15T04:27:24;4.90;67.90
37052;DHT22;22964;52.272;13.356;2023-03-15T04:30:16;4.90;67.90
37052;DHT22;22964;52.272;13.356;2023-03-15T04:32:42;4.90;67.90
37052;DHT22;22964;52.272;13.356;2023-03-15T04:35:16;4.90;68.10
37052;DHT22;22964;52.272;13.356;2023-03-15T04:37:54;4.90;68.10
37052;DHT22;22964;52.272;13.356;2023-03-15T04:40:30;4.90;68.20
37052;DHT22;22964;52.272;13.356;2023-03-15T04:43:17;4.80;68.20
37052;DHT22;22964;52.272;13.356;2023-03-15T04:46:02;4.80;68.10
37052;DHT22;22964;52.272;13.356;2023-03-15T04:48:47;4.80;68.40
37052;DHT22;22964;52.272;13.356;2023-03-15T04:51:50;4.80;68.40
37052;DHT22;22964;52.272;13.356;2023-03-15T04:54:39;4.80;68.50
37052;DHT22;22964;52.272;13.356;2023-03-15T04:57:17;4.70;68.50
37052;DHT22;22964;52.272;13.356;2023-03-15T04:59:46;4.70;68.60
37052;DHT22;22964;52.272;13.356;2023-03-15T05:02:17;4.70;68.70
37052;DHT22;22964;52.272;13.356;2023-03-15T05:05:11;4.70;68.80
37052;DHT22;22964;52.272;13.356;2023-03-15T05:08:06;4.70;68.80
37052;DHT22;22964;52.272;13.356;2023-03-15T05:10:42;4.60;68.80
37052;DHT22;22964;52.272;13.356;2023-03-15T05:13:31;4.60;69.70
37052;DHT22;22964;52.272;13.356;2023-03-15T05:16:17;4.60;69.00
37052;DHT22;22964;52.272;13.356;2023-03-15T05:18:53;4.60;69.30
37052;DHT22;22964;52.272;13.356;2023-03-15T05:21:44;4.60;69.40
37052;DHT22;22964;52.272;13.356;2023-03-15T05:24:42;4.60;69.50
37052;DHT22;22964;52.272;13.356;2023-03-15T05:27:47;4.60;69.50
37052;DHT22;22964;52.272;13.356;2023-03-15T05:30:32;4.70;69.50
37052;DHT22;22964;52.272;13.356;2023-03-15T05:33:30;4.70;69.50
37052;DHT22;22964;52.272;13.356;2023-03-15T05:36:09;4.80;69.50
37052;DHT22;22964;52.272;13.356;2023-03-15T05:39:13;4.80;69.60
37052;DHT22;22964;52.272;13.356;2023-03-15T05:42:01;4.80;69.50
37052;DHT22;22964;52.272;13.356;2023-03-15T05:44:39;4.90;69.60
37052;DHT22;22964;52.272;13.356;2023-03-15T05:47:23;4.90;69.60
37052;DHT22;22964;52.272;13.356;2023-03-15T05:50:06;5.00;69.60
37052;DHT22;22964;52.272;13.356;2023-03-15T05:52:57;5.00;69.50
37052;DHT22;22964;52.272;13.356;2023-03-15T05:55:37;5.10;70.40
37052;DHT22;22964;52.272;13.356;2023-03-15T05:58:28;5.10;69.50
37052;DHT22;22964;52.272;13.356;2023-03-15T06:01:14;5.20;69.50
37052;DHT22;22964;52.272;13.356;2023-03-15T06:03:58;5.30;69.60
37052;DHT22;22964;52.272;13.356;2023-03-15T06:06:27;5.30;69.60
37052;DHT22;22964;52.272;13.356;2023-03-15T06:08:53;5.30;69.70
37052;DHT22;22964;52.272;13.356;2023-03-15T06:11:19;5.40;69.50
37052;DHT22;22964;52.272;13.356;2023-03-15T06:13:46;5.40;69.50
37052;DHT22;22964;52.272;13.356;2023-03-15T06:16:22;5.50;69.40
37052;DHT22;22964;52.272;13.356;2023-03-15T06:18:52;5.50;69.40
37052;DHT22;22964;52.272;13.356;2023-03-15T06:21:17;5.60;69.30
37052;DHT22;22964;52.272;13.356;2023-03-15T06:23:43;5.60;69.20
37052;DHT22;22964;52.272;13.356;2023-03-15T06:26:09;5.60;69.10
37052;DHT22;22964;52.272;13.356;2023-03-15T06:28:34;5.60;69.10
37052;DHT22;22964;52.272;13.356;2023-03-15T06:31:07;5.70;69.10
37052;DHT22;22964;52.272;13.356;2023-03-15T06:33:39;5.80;69.20
37052;DHT22;22964;52.272;13.356;2023-03-15T06:36:08;5.80;69.10
37052;DHT22;22964;52.272;13.356;2023-03-15T06:38:34;5.80;69.10
37052;DHT22;22964;52.272;13.356;2023-03-15T06:41:00;5.80;69.00
37052;DHT22;22964;52.272;13.356;2023-03-15T06:43:26;5.80;68.90
37052;DHT22;22964;52.272;13.356;2023-03-15T06:45:53;5.90;68.90
37052;DHT22;22964;52.272;13.356;2023-03-15T06:48:21;5.90;68.70
37052;DHT22;22964;52.272;13.356;2023-03-15T06:50:46;5.90;68.60
37052;DHT22;22964;52.272;13.356;2023-03-15T06:53:12;5.90;68.60
37052;DHT22;22964;52.272;13.356;2023-03-15T06:55:38;5.90;68.70
37052;DHT22;22964;52.272;13.356;2023-03-15T06:58:04;5.90;68.70
37052;DHT22;22964;52.272;13.356;2023-03-15T07:00:30;6.00;68.90
37052;DHT22;22964;52.272;13.356;2023-03-15T07:02:55;6.00;68.90
37052;DHT22;22964;52.272;13.356;2023-03-15T07:05:21;6.10;69.10
37052;DHT22;22964;52.272;13.356;2023-03-15T07:07:47;6.10;68.90
37052;DHT22;22964;52.272;13.356;2023-03-15T07:10:12;6.10;68.90
37052;DHT22;22964;52.272;13.356;2023-03-15T07:12:38;6.20;69.00
37052;DHT22;22964;52.272;13.356;2023-03-15T07:15:04;6.20;68.90
37052;DHT22;22964;52.272;13.356;2023-03-15T07:17:30;6.30;68.80
37052;DHT22;22964;52.272;13.356;2023-03-15T07:19:56;6.30;68.60
37052;DHT22;22964;52.272;13.356;2023-03-15T07:22:21;6.40;68.50
37052;DHT22;22964;52.272;13.356;2023-03-15T07:24:47;6.40;68.50
37052;DHT22;22964;52.272;13.356;2023-03-15T07:27:13;6.50;68.50
37052;DHT22;22964;52.272;13.356;2023-03-15T07:29:39;6.50;68.50
37052;DHT22;22964;52.272;13.356;2023-03-15T07:32:06;6.60;68.50
37052;DHT22;22964;52.272;13.356;2023-03-15T07:34:32;6.60;68.50
37052;DHT22;22964;52.272;13.356;2023-03-15T07:36:58;6.70;68.50
37052;DHT22;22964;52.272;13.356;2023-03-15T07:39:23;6.70;68.70
37052;DHT22;22964;52.272;13.356;2023-03-15T07:41:53;6.80;68.90
37052;DHT22;22964;52.272;13.356;2023-03-15T07:44:28;6.90;69.00
37052;DHT22;22964;52.272;13.356;2023-03-15T07:46:54;7.00;69.00
37052;DHT22;22964;52.272;13.356;2023-03-15T07:49:20;7.10;68.70
37052;DHT22;22964;52.272;13.356;2023-03-15T07:51:46;7.20;68.40
37052;DHT22;22964;52.272;13.356;2023-03-15T07:54:11;7.30;68.90
37052;DHT22;22964;52.272;13.356;2023-03-15T07:56:37;7.40;67.60
37052;DHT22;22964;52.272;13.356;2023-03-15T07:59:03;7.50;67.40
37052;DHT22;22964;52.272;13.356;2023-03-15T08:01:28;7.40;66.80
37052;DHT22;22964;52.272;13.356;2023-03-15T08:03:54;7.50;66.60
37052;DHT22;22964;52.272;13.356;2023-03-15T08:06:20;7.60;66.50
37052;DHT22;22964;52.272;13.356;2023-03-15T08:08:46;7.60;66.50
37052;DHT22;22964;52.272;13.356;2023-03-15T08:11:11;7.60;66.30
37052;DHT22;22964;52.272;13.356;2023-03-15T08:13:37;7.60;66.30
37052;DHT22;22964;52.272;13.356;2023-03-15T08:16:03;7.60;66.10
37052;DHT22;22964;52.272;13.356;2023-03-15T08:18:29;7.70;66.10
37052;DHT22;22964;52.272;13.356;2023-03-15T08:20:55;7.70;66.00
37052;DHT22;22964;52.272;13.356;2023-03-15T08:23:21;7.70;66.00
37052;DHT22;22964;52.272;13.356;2023-03-15T08:25:47;7.80;66.00
37052;DHT22;22964;52.272;13.356;2023-03-15T08:28:13;7.80;65.90
37052;DHT22;22964;52.272;13.356;2023-03-15T08:30:39;7.80;65.90
37052;DHT22;22964;52.272;13.356;2023-03-15T08:33:06;7.80;66.20
37052;DHT22;22964;52.272;13.356;2023-03-15T08:35:33;7.90;66.30
37052;DHT22;22964;52.272;13.356;2023-03-15T08:38:00;7.90;66.30
37052;DHT22;22964;52.272;13.356;2023-03-15T08:40:28;8.00;66.20
37052;DHT22;22964;52.272;13.356;2023-03-15T08:42:55;8.00;66.20
37052;DHT22;22964;52.272;13.356;2023-03-15T08:45:22;8.10;66.10
37052;DHT22;22964;52.272;13.356;2023-03-15T08:47:52;8.10;65.90
37052;DHT22;22964;52.272;13.356;2023-03-15T08:50:18;8.10;65.80
37052;DHT22;22964;52.272;13.356;2023-03-15T08:52:45;8.10;65.80
37052;DHT22;22964;52.272;13.356;2023-03-15T08:55:11;8.20;65.80
37052;DHT22;22964;52.272;13.356;2023-03-15T08:57:45;8.20;65.60
37052;DHT22;22964;52.272;13.356;2023-03-15T09:00:11;8.30;65.20
37052;DHT22;22964;52.272;13.356;2023-03-15T09:02:49;8.30;65.10
37052;DHT22;22964;52.272;13.356;2023-03-15T09:05:16;8.30;65.10
37052;DHT22;22964;52.272;13.356;2023-03-15T09:07:43;8.30;64.90
37052;DHT22;22964;52.272;13.356;2023-03-15T09:10:11;8.40;64.90
37052;DHT22;22964;52.272;13.356;2023-03-15T09:12:45;8.40;64.60
37052;DHT22;22964;52.272;13.356;2023-03-15T09:15:12;8.40;64.50
37052;DHT22;22964;52.272;13.356;2023-03-15T09:17:38;8.40;64.60
37052;DHT22;22964;52.272;13.356;2023-03-15T09:20:06;8.40;64.70
37052;DHT22;22964;52.272;13.356;2023-03-15T09:22:56;8.40;64.60
37052;DHT22;22964;52.272;13.356;2023-03-15T09:25:22;8.40;64.70
37052;DHT22;22964;52.272;13.356;2023-03-15T09:27:48;8.50;64.50
37052;DHT22;22964;52.272;13.356;2023-03-15T09:30:14;8.50;64.40
37052;DHT22;22964;52.272;13.356;2023-03-15T09:32:41;8.50;64.60
37052;DHT22;22964;52.272;13.356;2023-03-15T09:35:11;8.50;64.60
37052;DHT22;22964;52.272;13.356;2023-03-15T09:37:37;8.60;64.80
37052;DHT22;22964;52.272;13.356;2023-03-15T09:40:03;8.60;66.20
37052;DHT22;22964;52.272;13.356;2023-03-15T09:47:38;8.90;64.30
37052;DHT22;22964;52.272;13.356;2023-03-15T09:50:27;9.00;64.30
37052;DHT22;22964;52.272;13.356;2023-03-15T09:52:59;9.10;63.80
37052;DHT22;22964;52.272;13.356;2023-03-15T09:55:27;9.10;63.80
37052;DHT22;22964;52.272;13.356;2023-03-15T09:58:09;9.20;63.50
37052;DHT22;22964;52.272;13.356;2023-03-15T10:00:48;9.20;63.10
37052;DHT22;22964;52.272;13.356;2023-03-15T10:03:43;9.20;63.20
37052;DHT22;22964;52.272;13.356;2023-03-15T10:06:23;9.20;62.50
37052;DHT22;22964;52.272;13.356;2023-03-15T10:08:58;9.20;62.70
37052;DHT22;22964;52.272;13.356;2023-03-15T10:16:48;9.40;63.90
37052;DHT22;22964;52.272;13.356;2023-03-15T10:27:42;9.50;62.40
37052;DHT22;22964;52.272;13.356;2023-03-15T10:32:45;9.60;62.30
37052;DHT22;22964;52.272;13.356;2023-03-15T10:35:17;9.60;62.20
37052;DHT22;22964;52.272;13.356;2023-03-15T10:37:43;9.60;61.80
37052;DHT22;22964;52.272;13.356;2023-03-15T10:40:11;9.60;60.60
37052;DHT22;22964;52.272;13.356;2023-03-15T10:42:45;9.70;60.90
37052;DHT22;22964;52.272;13.356;2023-03-15T10:45:24;9.70;60.40
37052;DHT22;22964;52.272;13.356;2023-03-15T10:47:50;9.70;60.20
37052;DHT22;22964;52.272;13.356;2023-03-15T10:50:28;9.80;60.70
37052;DHT22;22964;52.272;13.356;2023-03-15T10:52:59;9.90;61.00
37052;DHT22;22964;52.272;13.356;2023-03-15T10:55:34;10.00;60.40
37052;DHT22;22964;52.272;13.356;2023-03-15T10:58:24;10.00;60.00
37052;DHT22;22964;52.272;13.356;2023-03-15T11:01:03;10.10;59.40
37052;DHT22;22964;52.272;13.356;2023-03-15T11:03:33;10.20;59.90
37052;DHT22;22964;52.272;13.356;2023-03-15T11:05:59;10.30;60.40
37052;DHT22;22964;52.272;13.356;2023-03-15T11:08:41;10.50;60.00
37052;DHT22;22964;52.272;13.356;2023-03-15T11:11:07;10.60;59.10
37052;DHT22;22964;52.272;13.356;2023-03-15T11:13:36;10.70;59.60
37052;DHT22;22964;52.272;13.356;2023-03-15T11:16:05;10.80;58.70
37052;DHT22;22964;52.272;13.356;2023-03-15T11:18:38;10.90;58.20
37052;DHT22;22964;52.272;13.356;2023-03-15T11:21:11;10.90;57.60
37052;DHT22;22964;52.272;13.356;2023-03-15T11:23:42;10.90;57.40
37052;DHT22;22964;52.272;13.356;2023-03-15T11:26:23;10.90;56.90
37052;DHT22;22964;52.272;13.356;2023-03-15T11:28:57;10.90;56.80
37052;DHT22;22964;52.272;13.356;2023-03-15T11:31:26;10.90;57.00
37052;DHT22;22964;52.272;13.356;2023-03-15T11:34:07;10.80;57.10
37052;DHT22;22964;52.272;13.356;2023-03-15T11:36:36;10.80;56.50
37052;DHT22;22964;52.272;13.356;2023-03-15T11:39:04;10.90;57.20
37052;DHT22;22964;52.272;13.356;2023-03-15T11:41:43;10.90;57.70
37052;DHT22;22964;52.272;13.356;2023-03-15T11:44:35;11.00;57.10
37052;DHT22;22964;52.272;13.356;2023-03-15T11:49:54;11.20;55.50
37052;DHT22;22964;52.272;13.356;2023-03-15T11:52:22;11.20;56.20
37052;DHT22;22964;52.272;13.356;2023-03-15T11:54:49;11.30;55.80
37052;DHT22;22964;52.272;13.356;2023-03-15T11:59:55;11.30;55.20
37052;DHT22;22964;52.272;13.356;2023-03-15T12:04:52;11.50;56.10
37052;DHT22;22964;52.272;13.356;2023-03-15T12:15:02;11.50;55.80
37052;DHT22;22964;52.272;13.356;2023-03-15T12:22:34;11.40;55.10
37052;DHT22;22964;52.272;13.356;2023-03-15T12:27:52;11.40;54.90
37052;DHT22;22964;52.272;13.356;2023-03-15T12:33:02;11.30;54.70
37052;DHT22;22964;52.272;13.356;2023-03-15T12:35:37;11.30;55.50
37052;DHT22;22964;52.272;13.356;2023-03-15T12:38:17;11.30;55.20
37052;DHT22;22964;52.272;13.356;2023-03-15T12:40:55;11.20;55.00
37052;DHT22;22964;52.272;13.356;2023-03-15T12:46:00;11.20;55.20
37052;DHT22;22964;52.272;13.356;2023-03-15T12:48:26;11.20;55.90
37052;DHT22;22964;52.272;13.356;2023-03-15T12:50:55;11.20;56.40
37052;DHT22;22964;52.272;13.356;2023-03-15T12:58:46;11.50;54.10
37052;DHT22;22964;52.272;13.356;2023-03-15T13:01:15;11.70;54.90
37052;DHT22;22964;52.272;13.356;2023-03-15T13:03:41;11.80;54.80
37052;DHT22;22964;52.272;13.356;2023-03-15T13:06:21;11.90;54.70
37052;DHT22;22964;52.272;13.356;2023-03-15T13:08:55;12.00;55.00
37052;DHT22;22964;52.272;13.356;2023-03-15T13:11:30;12.10;55.60
37052;DHT22;22964;52.272;13.356;2023-03-15T13:16:48;12.40;53.30
37052;DHT22;22964;52.272;13.356;2023-03-15T13:19:45;12.50;54.00
37052;DHT22;22964;52.272;13.356;2023-03-15T13:25:05;12.90;52.20
37052;DHT22;22964;52.272;13.356;2023-03-15T13:33:17;13.10;50.90
37052;DHT22;22964;52.272;13.356;2023-03-15T13:35:47;13.20;51.20
37052;DHT22;22964;52.272;13.356;2023-03-15T13:41:03;13.40;51.60
37052;DHT22;22964;52.272;13.356;2023-03-15T13:43:35;13.50;51.50
37052;DHT22;22964;52.272;13.356;2023-03-15T13:46:01;13.60;51.80
37052;DHT22;22964;52.272;13.356;2023-03-15T13:48:32;13.60;51.10
37052;DHT22;22964;52.272;13.356;2023-03-15T13:51:04;13.70;51.20
37052;DHT22;22964;52.272;13.356;2023-03-15T13:53:31;13.70;50.50
37052;DHT22;22964;52.272;13.356;2023-03-15T13:55:57;13.80;52.10
37052;DHT22;22964;52.272;13.356;2023-03-15T13:58:23;13.80;50.90
37052;DHT22;22964;52.272;13.356;2023-03-15T14:00:58;13.70;49.70
37052;DHT22;22964;52.272;13.356;2023-03-15T14:03:26;13.60;48.40
37052;DHT22;22964;52.272;13.356;2023-03-15T14:05:54;13.40;49.10
37052;DHT22;22964;52.272;13.356;2023-03-15T14:08:27;13.30;48.80
37052;DHT22;22964;52.272;13.356;2023-03-15T14:13:55;13.00;49.50
37052;DHT22;22964;52.272;13.356;2023-03-15T14:16:46;12.90;48.50
37052;DHT22;22964;52.272;13.356;2023-03-15T14:19:24;12.80;48.50
37052;DHT22;22964;52.272;13.356;2023-03-15T14:21:55;12.80;49.50
37052;DHT22;22964;52.272;13.356;2023-03-15T14:24:38;12.70;49.60
37052;DHT22;22964;52.272;13.356;2023-03-15T14:27:14;12.60;49.90
37052;DHT22;22964;52.272;13.356;2023-03-15T14:29:49;12.50;50.70
37052;DHT22;22964;52.272;13.356;2023-03-15T14:32:33;12.50;50.70
37052;DHT22;22964;52.272;13.356;2023-03-15T14:35:06;12.40;50.70
37052;DHT22;22964;52.272;13.356;2023-03-15T14:37:42;12.40;51.40
37052;DHT22;22964;52.272;13.356;2023-03-15T14:42:40;12.50;51.60
37052;DHT22;22964;52.272;13.356;2023-03-15T14:45:06;12.50;51.90
37052;DHT22;22964;52.272;13.356;2023-03-15T14:47:34;12.60;50.90
37052;DHT22;22964;52.272;13.356;2023-03-15T14:50:01;12.60;51.40
37052;DHT22;22964;52.272;13.356;2023-03-15T14:52:27;12.60;50.10
37052;DHT22;22964;52.272;13.356;2023-03-15T14:54:53;12.60;50.40
37052;DHT22;22964;52.272;13.356;2023-03-15T14:57:19;12.70;50.00
37052;DHT22;22964;52.272;13.356;2023-03-15T14:59:45;12.70;50.00
37052;DHT22;22964;52.272;13.356;2023-03-15T15:02:15;12.70;50.30
37052;DHT22;22964;52.272;13.356;2023-03-15T15:04:41;12.70;49.70
37052;DHT22;22964;52.272;13.356;2023-03-15T15:07:12;12.70;50.20
37052;DHT22;22964;52.272;13.356;2023-03-15T15:09:44;12.60;49.40
37052;DHT22;22964;52.272;13.356;2023-03-15T15:12:11;12.60;49.50
37052;DHT22;22964;52.272;13.356;2023-03-15T15:14:37;12.60;50.00
37052;DHT22;22964;52.272;13.356;2023-03-15T15:17:02;12.60;49.90
37052;DHT22;22964;52.272;13.356;2023-03-15T15:19:29;12.60;50.20
37052;DHT22;22964;52.272;13.356;2023-03-15T15:21:55;12.60;49.40
37052;DHT22;22964;52.272;13.356;2023-03-15T15:24:24;12.50;49.50
37052;DHT22;22964;52.272;13.356;2023-03-15T15:26:50;12.50;49.80
37052;DHT22;22964;52.272;13.356;2023-03-15T15:29:16;12.40;50.20
37052;DHT22;22964;52.272;13.356;2023-03-15T15:31:43;12.40;49.80
37052;DHT22;22964;52.272;13.356;2023-03-15T15:34:10;12.30;50.30
37052;DHT22;22964;52.272;13.356;2023-03-15T15:36:39;12.30;50.00
37052;DHT22;22964;52.272;13.356;2023-03-15T15:39:15;12.20;49.70
37052;DHT22;22964;52.272;13.356;2023-03-15T15:41:42;12.20;49.20
37052;DHT22;22964;52.272;13.356;2023-03-15T15:44:15;12.10;50.00
37052;DHT22;22964;52.272;13.356;2023-03-15T15:46:41;12.00;49.90
37052;DHT22;22964;52.272;13.356;2023-03-15T15:49:06;11.90;50.20
37052;DHT22;22964;52.272;13.356;2023-03-15T15:51:43;11.90;50.10
37052;DHT22;22964;52.272;13.356;2023-03-15T15:54:25;11.80;49.00
37052;DHT22;22964;52.272;13.356;2023-03-15T15:56:53;11.80;49.50
37052;DHT22;22964;52.272;13.356;2023-03-15T15:59:20;11.70;50.00
37052;DHT22;22964;52.272;13.356;2023-03-15T16:01:47;11.70;50.20
37052;DHT22;22964;52.272;13.356;2023-03-15T16:04:15;11.60;49.90
37052;DHT22;22964;52.272;13.356;2023-03-15T16:06:41;11.60;50.20
37052;DHT22;22964;52.272;13.356;2023-03-15T16:09:11;11.50;50.20
37052;DHT22;22964;52.272;13.356;2023-03-15T16:11:37;11.50;49.90
37052;DHT22;22964;52.272;13.356;2023-03-15T16:14:04;11.50;50.30
37052;DHT22;22964;52.272;13.356;2023-03-15T16:16:30;11.50;50.90
37052;DHT22;22964;52.272;13.356;2023-03-15T16:18:56;11.50;49.90
37052;DHT22;22964;52.272;13.356;2023-03-15T16:24:16;11.40;49.90
37052;DHT22;22964;52.272;13.356;2023-03-15T16:26:43;11.40;49.70
37052;DHT22;22964;52.272;13.356;2023-03-15T16:29:18;11.40;50.30
37052;DHT22;22964;52.272;13.356;2023-03-15T16:31:45;11.40;49.90
37052;DHT22;22964;52.272;13.356;2023-03-15T16:34:13;11.40;51.20
37052;DHT22;22964;52.272;13.356;2023-03-15T16:36:40;11.40;50.00
37052;DHT22;22964;52.272;13.356;2023-03-15T16:39:10;11.40;50.30
37052;DHT22;22964;52.272;13.356;2023-03-15T16:41:37;11.40;50.20
37052;DHT22;22964;52.272;13.356;2023-03-15T16:44:13;11.30;50.10
37052;DHT22;22964;52.272;13.356;2023-03-15T16:46:39;11.20;50.10
37052;DHT22;22964;52.272;13.356;2023-03-15T16:49:05;11.20;50.70
37052;DHT22;22964;52.272;13.356;2023-03-15T16:51:31;11.20;50.30
37052;DHT22;22964;52.272;13.356;2023-03-15T16:53:57;11.10;50.40
37052;DHT22;22964;52.272;13.356;2023-03-15T16:56:23;11.00;50.30
37052;DHT22;22964;52.272;13.356;2023-03-15T16:58:51;11.00;50.10
37052;DHT22;22964;52.272;13.356;2023-03-15T17:01:18;10.90;50.50
37052;DHT22;22964;52.272;13.356;2023-03-15T17:03:44;10.80;50.50
37052;DHT22;22964;52.272;13.356;2023-03-15T17:06:19;10.80;50.90
37052;DHT22;22964;52.272;13.356;2023-03-15T17:08:59;10.60;50.40
37052;DHT22;22964;52.272;13.356;2023-03-15T17:11:27;10.60;50.50
37052;DHT22;22964;52.272;13.356;2023-03-15T17:13:54;10.50;50.80
37052;DHT22;22964;52.272;13.356;2023-03-15T17:16:20;10.40;51.10